sensor_id;sensor_type;location;lat;lon;timestamp;P1;durP1;ratioP1;P2;durP2;ratioP2
32407;SDS011;18869;55.970;37.502;2022-07-17T00:00:11;7.60;;;6.00;;
32407;SDS011;18869;55.970;37.502;2022-07-17T00:02:40;7.87;;;6.27;;
32407;SDS011;18869;55.970;37.502;2022-07-17T00:05:10;6.93;;;5.33;;
32407;SDS011;18869;55.970;37.502;2022-07-17T00:07:37;6.83;;;5.97;;
32407;SDS011;18869;55.970;37.502;2022-07-17T00:10:06;8.57;;;6.33;;
32407;SDS011;18869;55.970;37.502;2022-07-17T00:12:35;7.20;;;6.23;;
32407;SDS011;18869;55.970;37.502;2022-07-17T00:15:03;7.20;;;5.73;;
32407;SDS011;18869;55.970;37.502;2022-07-17T00:17:32;6.27;;;5.63;;
32407;SDS011;18869;55.970;37.502;2022-07-17T00:20:01;7.43;;;6.10;;
32407;SDS011;18869;55.970;37.502;2022-07-17T00:22:30;7.87;;;6.17;;
32407;SDS011;18869;55.970;37.502;2022-07-17T00:24:59;7.47;;;6.10;;
32407;SDS011;18869;55.970;37.502;2022-07-17T00:27:28;8.13;;;5.70;;
32407;SDS011;18869;55.970;37.502;2022-07-17T00:29:56;12.83;;;6.93;;
32407;SDS011;18869;55.970;37.502;2022-07-17T00:32:24;7.53;;;6.20;;
32407;SDS011;18869;55.970;37.502;2022-07-17T00:34:51;8.93;;;6.23;;
32407;SDS011;18869;55.970;37.502;2022-07-17T00:37:19;9.47;;;6.07;;
32407;SDS011;18869;55.970;37.502;2022-07-17T00:39:48;8.33;;;6.10;;
32407;SDS011;18869;55.970;37.502;2022-07-17T00:42:16;9.73;;;5.93;;
32407;SDS011;18869;55.970;37.502;2022-07-17T00:44:44;9.10;;;6.37;;
32407;SDS011;18869;55.970;37.502;2022-07-17T00:47:12;8.67;;;5.83;;
32407;SDS011;18869;55.970;37.502;2022-07-17T00:49:41;6.57;;;5.27;;
32407;SDS011;18869;55.970;37.502;2022-07-17T00:52:09;6.67;;;5.97;;
32407;SDS011;18869;55.970;37.502;2022-07-17T00:54:39;8.43;;;6.60;;
32407;SDS011;18869;55.970;37.502;2022-07-17T00:57:09;6.20;;;5.60;;
32407;SDS011;18869;55.970;37.502;2022-07-17T00:59:38;9.10;;;6.43;;
32407;SDS011;18869;55.970;37.502;2022-07-17T01:02:07;7.53;;;5.63;;
32407;SDS011;18869;55.970;37.502;2022-07-17T01:04:36;8.00;;;5.80;;
32407;SDS011;18869;55.970;37.502;2022-07-17T01:07:04;6.87;;;6.17;;
32407;SDS011;18869;55.970;37.502;2022-07-17T01:09:33;8.83;;;6.10;;
32407;SDS011;18869;55.970;37.502;2022-07-17T01:12:01;8.33;;;6.17;;
32407;SDS011;18869;55.970;37.502;2022-07-17T01:14:30;8.07;;;6.00;;
32407;SDS011;18869;55.970;37.502;2022-07-17T01:16:59;7.77;;;6.17;;
32407;SDS011;18869;55.970;37.502;2022-07-17T01:19:27;6.60;;;5.40;;
32407;SDS011;18869;55.970;37.502;2022-07-17T01:21:56;9.30;;;5.40;;
32407;SDS011;18869;55.970;37.502;2022-07-17T01:24:24;8.93;;;6.40;;
32407;SDS011;18869;55.970;37.502;2022-07-17T01:26:51;7.03;;;5.67;;
32407;SDS011;18869;55.970;37.502;2022-07-17T01:29:19;6.23;;;5.40;;
32407;SDS011;18869;55.970;37.502;2022-07-17T01:31:47;7.77;;;6.07;;
32407;SDS011;18869;55.970;37.502;2022-07-17T01:34:15;6.17;;;5.23;;
32407;SDS011;18869;55.970;37.502;2022-07-17T01:36:43;12.63;;;6.07;;
32407;SDS011;18869;55.970;37.502;2022-07-17T01:39:12;8.40;;;5.93;;
32407;SDS011;18869;55.970;37.502;2022-07-17T01:41:39;9.90;;;6.77;;
32407;SDS011;18869;55.970;37.502;2022-07-17T01:44:07;6.57;;;5.63;;
32407;SDS011;18869;55.970;37.502;2022-07-17T01:46:35;7.80;;;5.93;;
32407;SDS011;18869;55.970;37.502;2022-07-17T01:49:02;6.87;;;6.07;;
32407;SDS011;18869;55.970;37.502;2022-07-17T01:51:30;7.07;;;6.17;;
32407;SDS011;18869;55.970;37.502;2022-07-17T01:53:58;9.27;;;5.87;;
32407;SDS011;18869;55.970;37.502;2022-07-17T01:56:27;8.67;;;6.23;;
32407;SDS011;18869;55.970;37.502;2022-07-17T01:58:54;8.37;;;6.50;;
32407;SDS011;18869;55.970;37.502;2022-07-17T02:01:22;10.60;;;6.23;;
32407;SDS011;18869;55.970;37.502;2022-07-17T02:03:50;8.47;;;6.40;;
32407;SDS011;18869;55.970;37.502;2022-07-17T02:06:18;6.87;;;6.17;;
32407;SDS011;18869;55.970;37.502;2022-07-17T02:08:45;7.60;;;5.80;;
32407;SDS011;18869;55.970;37.502;2022-07-17T02:11:15;9.77;;;6.07;;
32407;SDS011;18869;55.970;37.502;2022-07-17T02:13:45;9.13;;;5.93;;
32407;SDS011;18869;55.970;37.502;2022-07-17T02:16:12;6.87;;;6.17;;
32407;SDS011;18869;55.970;37.502;2022-07-17T02:18:40;11.07;;;5.97;;
32407;SDS011;18869;55.970;37.502;2022-07-17T02:21:08;8.27;;;6.27;;
32407;SDS011;18869;55.970;37.502;2022-07-17T02:23:36;9.90;;;6.30;;
32407;SDS011;18869;55.970;37.502;2022-07-17T02:26:04;8.60;;;6.13;;
32407;SDS011;18869;55.970;37.502;2022-07-17T02:28:31;6.97;;;5.93;;
32407;SDS011;18869;55.970;37.502;2022-07-17T02:31:00;6.30;;;5.67;;
32407;SDS011;18869;55.970;37.502;2022-07-17T02:33:28;8.53;;;6.17;;
32407;SDS011;18869;55.970;37.502;2022-07-17T02:35:55;6.87;;;6.00;;
32407;SDS011;18869;55.970;37.502;2022-07-17T02:38:23;11.63;;;7.07;;
32407;SDS011;18869;55.970;37.502;2022-07-17T02:40:51;7.00;;;5.50;;
32407;SDS011;18869;55.970;37.502;2022-07-17T02:43:19;7.30;;;5.97;;
32407;SDS011;18869;55.970;37.502;2022-07-17T02:45:46;10.77;;;6.17;;
32407;SDS011;18869;55.970;37.502;2022-07-17T02:48:16;6.90;;;5.97;;
32407;SDS011;18869;55.970;37.502;2022-07-17T02:50:43;7.73;;;6.63;;
32407;SDS011;18869;55.970;37.502;2022-07-17T02:53:11;6.50;;;5.63;;
32407;SDS011;18869;55.970;37.502;2022-07-17T02:55:39;8.23;;;6.23;;
32407;SDS011;18869;55.970;37.502;2022-07-17T02:58:06;7.27;;;5.37;;
32407;SDS011;18869;55.970;37.502;2022-07-17T03:00:34;7.93;;;5.73;;
32407;SDS011;18869;55.970;37.502;2022-07-17T03:03:02;12.40;;;6.47;;
32407;SDS011;18869;55.970;37.502;2022-07-17T03:05:31;7.23;;;6.27;;
32407;SDS011;18869;55.970;37.502;2022-07-17T03:07:58;7.23;;;5.83;;
32407;SDS011;18869;55.970;37.502;2022-07-17T03:10:26;8.07;;;7.27;;
32407;SDS011;18869;55.970;37.502;2022-07-17T03:12:54;16.37;;;14.67;;
32407;SDS011;18869;55.970;37.502;2022-07-17T03:15:21;18.43;;;12.90;;
32407;SDS011;18869;55.970;37.502;2022-07-17T03:17:49;13.83;;;12.53;;
32407;SDS011;18869;55.970;37.502;2022-07-17T03:20:18;11.83;;;10.67;;
32407;SDS011;18869;55.970;37.502;2022-07-17T03:22:47;8.87;;;7.77;;
32407;SDS011;18869;55.970;37.502;2022-07-17T03:25:15;8.07;;;7.27;;
32407;SDS011;18869;55.970;37.502;2022-07-17T03:27:43;8.47;;;6.40;;
32407;SDS011;18869;55.970;37.502;2022-07-17T03:30:10;7.93;;;6.17;;
32407;SDS011;18869;55.970;37.502;2022-07-17T03:32:38;7.80;;;5.47;;
32407;SDS011;18869;55.970;37.502;2022-07-17T03:35:07;7.97;;;5.87;;
32407;SDS011;18869;55.970;37.502;2022-07-17T03:37:37;8.83;;;5.40;;
32407;SDS011;18869;55.970;37.502;2022-07-17T03:40:09;7.23;;;5.47;;
32407;SDS011;18869;55.970;37.502;2022-07-17T03:42:38;10.10;;;6.17;;
32407;SDS011;18869;55.970;37.502;2022-07-17T03:45:06;9.73;;;6.73;;
32407;SDS011;18869;55.970;37.502;2022-07-17T03:47:34;9.03;;;6.17;;
32407;SDS011;18869;55.970;37.502;2022-07-17T03:50:04;9.20;;;5.60;;
32407;SDS011;18869;55.970;37.502;2022-07-17T03:52:32;7.47;;;5.17;;
32407;SDS011;18869;55.970;37.502;2022-07-17T03:55:00;8.10;;;5.40;;
32407;SDS011;18869;55.970;37.502;2022-07-17T03:57:30;8.87;;;5.90;;
32407;SDS011;18869;55.970;37.502;2022-07-17T03:59:59;6.77;;;4.97;;
32407;SDS011;18869;55.970;37.502;2022-07-17T04:02:37;8.03;;;5.50;;
32407;SDS011;18869;55.970;37.502;2022-07-17T04:05:06;7.17;;;5.27;;
32407;SDS011;18869;55.970;37.502;2022-07-17T04:07:35;7.07;;;5.17;;
32407;SDS011;18869;55.970;37.502;2022-07-17T04:10:04;7.83;;;5.13;;
32407;SDS011;18869;55.970;37.502;2022-07-17T04:12:34;4.97;;;4.47;;
32407;SDS011;18869;55.970;37.502;2022-07-17T04:15:03;5.60;;;4.00;;
32407;SDS011;18869;55.970;37.502;2022-07-17T04:17:31;4.67;;;3.57;;
32407;SDS011;18869;55.970;37.502;2022-07-17T04:20:00;5.57;;;4.17;;
32407;SDS011;18869;55.970;37.502;2022-07-17T04:22:29;3.17;;;2.93;;
32407;SDS011;18869;55.970;37.502;2022-07-17T04:24:56;3.10;;;2.80;;
32407;SDS011;18869;55.970;37.502;2022-07-17T04:27:24;2.53;;;2.20;;
32407;SDS011;18869;55.970;37.502;2022-07-17T04:29:53;4.70;;;2.33;;
32407;SDS011;18869;55.970;37.502;2022-07-17T04:32:22;1.80;;;1.70;;
32407;SDS011;18869;55.970;37.502;2022-07-17T04:34:50;5.83;;;1.87;;
32407;SDS011;18869;55.970;37.502;2022-07-17T04:37:18;2.43;;;2.23;;
32407;SDS011;18869;55.970;37.502;2022-07-17T04:39:45;1.63;;;1.53;;
32407;SDS011;18869;55.970;37.502;2022-07-17T04:42:13;7.53;;;2.60;;
32407;SDS011;18869;55.970;37.502;2022-07-17T04:44:40;2.43;;;1.90;;
32407;SDS011;18869;55.970;37.502;2022-07-17T04:47:10;5.40;;;1.93;;
32407;SDS011;18869;55.970;37.502;2022-07-17T04:49:39;4.80;;;2.03;;
32407;SDS011;18869;55.970;37.502;2022-07-17T04:52:07;5.07;;;1.90;;
32407;SDS011;18869;55.970;37.502;2022-07-17T04:54:35;4.77;;;1.63;;
32407;SDS011;18869;55.970;37.502;2022-07-17T04:57:03;1.67;;;1.57;;
32407;SDS011;18869;55.970;37.502;2022-07-17T04:59:31;2.43;;;1.83;;
32407;SDS011;18869;55.970;37.502;2022-07-17T05:01:58;1.87;;;1.40;;
32407;SDS011;18869;55.970;37.502;2022-07-17T05:04:28;2.20;;;1.37;;
32407;SDS011;18869;55.970;37.502;2022-07-17T05:06:56;2.23;;;1.50;;
32407;SDS011;18869;55.970;37.502;2022-07-17T05:09:24;3.90;;;1.53;;
32407;SDS011;18869;55.970;37.502;2022-07-17T05:11:52;2.13;;;1.60;;
32407;SDS011;18869;55.970;37.502;2022-07-17T05:14:20;1.40;;;1.30;;
32407;SDS011;18869;55.970;37.502;2022-07-17T05:16:48;3.53;;;1.63;;
32407;SDS011;18869;55.970;37.502;2022-07-17T05:19:17;1.53;;;1.33;;
32407;SDS011;18869;55.970;37.502;2022-07-17T05:21:46;2.93;;;1.40;;
32407;SDS011;18869;55.970;37.502;2022-07-17T05:24:14;1.83;;;1.43;;
32407;SDS011;18869;55.970;37.502;2022-07-17T05:26:42;2.27;;;1.40;;
32407;SDS011;18869;55.970;37.502;2022-07-17T05:29:10;1.47;;;1.37;;
32407;SDS011;18869;55.970;37.502;2022-07-17T05:31:38;1.80;;;1.10;;
32407;SDS011;18869;55.970;37.502;2022-07-17T05:34:08;1.40;;;1.30;;
32407;SDS011;18869;55.970;37.502;2022-07-17T05:36:36;3.23;;;1.20;;
32407;SDS011;18869;55.970;37.502;2022-07-17T05:39:05;1.10;;;1.00;;
32407;SDS011;18869;55.970;37.502;2022-07-17T05:41:34;2.30;;;0.90;;
32407;SDS011;18869;55.970;37.502;2022-07-17T05:44:02;1.40;;;1.30;;
32407;SDS011;18869;55.970;37.502;2022-07-17T05:46:30;1.53;;;1.20;;
32407;SDS011;18869;55.970;37.502;2022-07-17T05:48:58;1.53;;;1.03;;
32407;SDS011;18869;55.970;37.502;2022-07-17T05:51:26;3.67;;;0.90;;
32407;SDS011;18869;55.970;37.502;2022-07-17T05:53:54;2.40;;;1.30;;
32407;SDS011;18869;55.970;37.502;2022-07-17T05:56:24;1.40;;;1.30;;
32407;SDS011;18869;55.970;37.502;2022-07-17T05:58:51;1.53;;;1.17;;
32407;SDS011;18869;55.970;37.502;2022-07-17T06:01:20;1.77;;;1.07;;
32407;SDS011;18869;55.970;37.502;2022-07-17T06:03:50;2.03;;;1.10;;
32407;SDS011;18869;55.970;37.502;2022-07-17T06:06:18;1.67;;;1.20;;
32407;SDS011;18869;55.970;37.502;2022-07-17T06:08:47;1.80;;;1.40;;
32407;SDS011;18869;55.970;37.502;2022-07-17T06:11:15;1.53;;;1.10;;
32407;SDS011;18869;55.970;37.502;2022-07-17T06:13:44;1.30;;;1.10;;
32407;SDS011;18869;55.970;37.502;2022-07-17T06:16:12;2.60;;;1.40;;
32407;SDS011;18869;55.970;37.502;2022-07-17T06:18:41;3.08;;;1.08;;
32407;SDS011;18869;55.970;37.502;2022-07-17T06:21:10;1.02;;;0.80;;
32407;SDS011;18869;55.970;37.502;2022-07-17T06:23:37;1.87;;;0.80;;
32407;SDS011;18869;55.970;37.502;2022-07-17T06:26:08;1.25;;;0.75;;
32407;SDS011;18869;55.970;37.502;2022-07-17T06:28:36;1.58;;;0.82;;
32407;SDS011;18869;55.970;37.502;2022-07-17T06:31:06;0.80;;;0.80;;
32407;SDS011;18869;55.970;37.502;2022-07-17T06:33:34;1.37;;;0.90;;
32407;SDS011;18869;55.970;37.502;2022-07-17T06:36:03;5.12;;;0.85;;
32407;SDS011;18869;55.970;37.502;2022-07-17T06:38:31;1.70;;;0.50;;
32407;SDS011;18869;55.970;37.502;2022-07-17T06:41:01;1.08;;;0.40;;
32407;SDS011;18869;55.970;37.502;2022-07-17T06:43:29;0.70;;;0.60;;
32407;SDS011;18869;55.970;37.502;2022-07-17T06:45:57;0.73;;;0.70;;
32407;SDS011;18869;55.970;37.502;2022-07-17T06:48:26;1.37;;;0.68;;
32407;SDS011;18869;55.970;37.502;2022-07-17T06:50:54;0.40;;;0.40;;
32407;SDS011;18869;55.970;37.502;2022-07-17T06:53:22;0.50;;;0.50;;
32407;SDS011;18869;55.970;37.502;2022-07-17T06:55:51;0.55;;;0.40;;
32407;SDS011;18869;55.970;37.502;2022-07-17T06:58:18;0.40;;;0.40;;
32407;SDS011;18869;55.970;37.502;2022-07-17T07:00:46;0.30;;;0.30;;
32407;SDS011;18869;55.970;37.502;2022-07-17T07:03:14;2.08;;;0.40;;
32407;SDS011;18869;55.970;37.502;2022-07-17T07:05:44;0.52;;;0.50;;
32407;SDS011;18869;55.970;37.502;2022-07-17T07:08:11;0.93;;;0.50;;
32407;SDS011;18869;55.970;37.502;2022-07-17T07:10:42;0.40;;;0.40;;
32407;SDS011;18869;55.970;37.502;2022-07-17T07:13:11;0.50;;;0.40;;
32407;SDS011;18869;55.970;37.502;2022-07-17T07:15:40;0.70;;;0.70;;
32407;SDS011;18869;55.970;37.502;2022-07-17T07:18:08;0.60;;;0.45;;
32407;SDS011;18869;55.970;37.502;2022-07-17T07:20:36;1.00;;;0.60;;
32407;SDS011;18869;55.970;37.502;2022-07-17T07:23:06;0.98;;;0.85;;
32407;SDS011;18869;55.970;37.502;2022-07-17T07:25:34;1.17;;;0.60;;
32407;SDS011;18869;55.970;37.502;2022-07-17T07:28:02;0.68;;;0.68;;
32407;SDS011;18869;55.970;37.502;2022-07-17T07:30:31;1.77;;;0.70;;
32407;SDS011;18869;55.970;37.502;2022-07-17T07:32:59;0.70;;;0.70;;
32407;SDS011;18869;55.970;37.502;2022-07-17T07:35:27;0.93;;;0.50;;
32407;SDS011;18869;55.970;37.502;2022-07-17T07:37:57;0.70;;;0.65;;
32407;SDS011;18869;55.970;37.502;2022-07-17T07:40:27;0.35;;;0.35;;
32407;SDS011;18869;55.970;37.502;2022-07-17T07:42:55;0.93;;;0.60;;
32407;SDS011;18869;55.970;37.502;2022-07-17T07:45:23;0.88;;;0.55;;
32407;SDS011;18869;55.970;37.502;2022-07-17T07:47:53;0.50;;;0.50;;
32407;SDS011;18869;55.970;37.502;2022-07-17T07:50:21;1.05;;;0.60;;
32407;SDS011;18869;55.970;37.502;2022-07-17T07:52:51;1.12;;;0.57;;
32407;SDS011;18869;55.970;37.502;2022-07-17T07:55:19;0.40;;;0.40;;
32407;SDS011;18869;55.970;37.502;2022-07-17T07:57:49;0.68;;;0.40;;
32407;SDS011;18869;55.970;37.502;2022-07-17T08:00:28;0.47;;;0.47;;
32407;SDS011;18869;55.970;37.502;2022-07-17T08:02:56;0.57;;;0.50;;
32407;SDS011;18869;55.970;37.502;2022-07-17T08:05:25;0.43;;;0.40;;
32407;SDS011;18869;55.970;37.502;2022-07-17T08:07:53;0.43;;;0.40;;
32407;SDS011;18869;55.970;37.502;2022-07-17T08:10:22;0.40;;;0.40;;
32407;SDS011;18869;55.970;37.502;2022-07-17T08:12:51;2.17;;;0.80;;
32407;SDS011;18869;55.970;37.502;2022-07-17T08:15:22;2.53;;;0.47;;
32407;SDS011;18869;55.970;37.502;2022-07-17T08:17:51;0.35;;;0.30;;
32407;SDS011;18869;55.970;37.502;2022-07-17T08:20:20;0.93;;;0.60;;
32407;SDS011;18869;55.970;37.502;2022-07-17T08:22:48;2.00;;;0.68;;
32407;SDS011;18869;55.970;37.502;2022-07-17T08:25:17;0.40;;;0.40;;
32407;SDS011;18869;55.970;37.502;2022-07-17T08:27:45;0.65;;;0.50;;
32407;SDS011;18869;55.970;37.502;2022-07-17T08:30:14;0.40;;;0.30;;
32407;SDS011;18869;55.970;37.502;2022-07-17T08:32:42;1.58;;;0.50;;
32407;SDS011;18869;55.970;37.502;2022-07-17T08:35:11;0.40;;;0.40;;
32407;SDS011;18869;55.970;37.502;2022-07-17T08:37:46;0.45;;;0.30;;
32407;SDS011;18869;55.970;37.502;2022-07-17T08:40:19;0.60;;;0.60;;
32407;SDS011;18869;55.970;37.502;2022-07-17T08:42:49;1.15;;;0.52;;
32407;SDS011;18869;55.970;37.502;2022-07-17T08:45:20;0.60;;;0.60;;
32407;SDS011;18869;55.970;37.502;2022-07-17T08:48:00;1.50;;;0.60;;
32407;SDS011;18869;55.970;37.502;2022-07-17T08:50:29;0.60;;;0.60;;
32407;SDS011;18869;55.970;37.502;2022-07-17T08:52:58;1.77;;;1.10;;
32407;SDS011;18869;55.970;37.502;2022-07-17T08:55:27;1.20;;;1.10;;
32407;SDS011;18869;55.970;37.502;2022-07-17T08:57:56;1.90;;;1.80;;
32407;SDS011;18869;55.970;37.502;2022-07-17T09:00:28;3.67;;;3.08;;
32407;SDS011;18869;55.970;37.502;2022-07-17T09:03:09;3.45;;;3.10;;
32407;SDS011;18869;55.970;37.502;2022-07-17T09:05:38;2.22;;;2.05;;
32407;SDS011;18869;55.970;37.502;2022-07-17T09:08:08;2.90;;;1.15;;
32407;SDS011;18869;55.970;37.502;2022-07-17T09:10:40;0.98;;;0.90;;
32407;SDS011;18869;55.970;37.502;2022-07-17T09:13:15;2.15;;;0.90;;
32407;SDS011;18869;55.970;37.502;2022-07-17T09:15:46;1.10;;;1.00;;
32407;SDS011;18869;55.970;37.502;2022-07-17T09:18:16;1.00;;;0.73;;
32407;SDS011;18869;55.970;37.502;2022-07-17T09:20:45;1.45;;;1.05;;
32407;SDS011;18869;55.970;37.502;2022-07-17T09:23:16;0.85;;;0.60;;
32407;SDS011;18869;55.970;37.502;2022-07-17T09:25:48;1.12;;;0.98;;
32407;SDS011;18869;55.970;37.502;2022-07-17T09:28:20;0.90;;;0.70;;
32407;SDS011;18869;55.970;37.502;2022-07-17T09:30:52;0.47;;;0.47;;
32407;SDS011;18869;55.970;37.502;2022-07-17T09:33:21;1.33;;;0.73;;
32407;SDS011;18869;55.970;37.502;2022-07-17T09:35:53;1.90;;;1.30;;
32407;SDS011;18869;55.970;37.502;2022-07-17T09:38:26;3.43;;;0.90;;
32407;SDS011;18869;55.970;37.502;2022-07-17T09:41:03;2.10;;;1.20;;
32407;SDS011;18869;55.970;37.502;2022-07-17T09:43:39;2.47;;;1.00;;
32407;SDS011;18869;55.970;37.502;2022-07-17T09:46:13;1.53;;;0.80;;
32407;SDS011;18869;55.970;37.502;2022-07-17T09:48:43;2.57;;;1.40;;
32407;SDS011;18869;55.970;37.502;2022-07-17T09:51:19;2.80;;;1.27;;
32407;SDS011;18869;55.970;37.502;2022-07-17T09:53:52;2.17;;;1.20;;
32407;SDS011;18869;55.970;37.502;2022-07-17T09:56:25;2.40;;;1.50;;
32407;SDS011;18869;55.970;37.502;2022-07-17T09:58:54;2.57;;;2.07;;
32407;SDS011;18869;55.970;37.502;2022-07-17T10:01:26;2.67;;;1.80;;
32407;SDS011;18869;55.970;37.502;2022-07-17T10:03:54;2.13;;;1.17;;
32407;SDS011;18869;55.970;37.502;2022-07-17T10:06:24;2.43;;;1.67;;
32407;SDS011;18869;55.970;37.502;2022-07-17T10:08:52;2.97;;;1.67;;
32407;SDS011;18869;55.970;37.502;2022-07-17T10:11:23;4.43;;;2.90;;
32407;SDS011;18869;55.970;37.502;2022-07-17T10:13:54;4.57;;;2.23;;
32407;SDS011;18869;55.970;37.502;2022-07-17T10:16:23;4.57;;;2.63;;
32407;SDS011;18869;55.970;37.502;2022-07-17T10:18:54;2.67;;;1.80;;
32407;SDS011;18869;55.970;37.502;2022-07-17T10:21:24;2.77;;;1.90;;
32407;SDS011;18869;55.970;37.502;2022-07-17T10:24:05;5.83;;;3.30;;
32407;SDS011;18869;55.970;37.502;2022-07-17T10:26:39;3.73;;;2.17;;
32407;SDS011;18869;55.970;37.502;2022-07-17T10:29:24;2.57;;;2.17;;
32407;SDS011;18869;55.970;37.502;2022-07-17T10:31:59;3.97;;;2.40;;
32407;SDS011;18869;55.970;37.502;2022-07-17T10:34:38;2.63;;;1.70;;
32407;SDS011;18869;55.970;37.502;2022-07-17T10:37:14;2.40;;;1.70;;
32407;SDS011;18869;55.970;37.502;2022-07-17T10:39:59;1.50;;;1.30;;
32407;SDS011;18869;55.970;37.502;2022-07-17T10:42:40;3.57;;;1.83;;
32407;SDS011;18869;55.970;37.502;2022-07-17T10:45:14;26.90;;;16.20;;
32407;SDS011;18869;55.970;37.502;2022-07-17T10:47:51;44.50;;;26.97;;
32407;SDS011;18869;55.970;37.502;2022-07-17T10:50:22;24.77;;;13.93;;
32407;SDS011;18869;55.970;37.502;2022-07-17T10:55:43;12.83;;;7.57;;
32407;SDS011;18869;55.970;37.502;2022-07-17T10:58:17;4.90;;;3.17;;
32407;SDS011;18869;55.970;37.502;2022-07-17T11:01:02;4.50;;;2.10;;
32407;SDS011;18869;55.970;37.502;2022-07-17T11:03:35;5.97;;;3.00;;
32407;SDS011;18869;55.970;37.502;2022-07-17T11:06:11;3.60;;;2.50;;
32407;SDS011;18869;55.970;37.502;2022-07-17T11:08:41;3.63;;;2.00;;
32407;SDS011;18869;55.970;37.502;2022-07-17T11:11:09;17.13;;;12.83;;
32407;SDS011;18869;55.970;37.502;2022-07-17T11:13:37;5.23;;;3.50;;
32407;SDS011;18869;55.970;37.502;2022-07-17T11:16:05;3.87;;;2.83;;
32407;SDS011;18869;55.970;37.502;2022-07-17T11:18:34;4.93;;;2.40;;
32407;SDS011;18869;55.970;37.502;2022-07-17T11:21:03;4.67;;;3.70;;
32407;SDS011;18869;55.970;37.502;2022-07-17T11:23:32;4.10;;;2.70;;
32407;SDS011;18869;55.970;37.502;2022-07-17T11:26:00;4.57;;;2.40;;
32407;SDS011;18869;55.970;37.502;2022-07-17T11:28:30;3.23;;;2.20;;
32407;SDS011;18869;55.970;37.502;2022-07-17T11:31:00;6.13;;;2.93;;
32407;SDS011;18869;55.970;37.502;2022-07-17T11:33:29;3.03;;;2.20;;
32407;SDS011;18869;55.970;37.502;2022-07-17T11:35:59;2.70;;;1.87;;
32407;SDS011;18869;55.970;37.502;2022-07-17T11:38:27;4.07;;;2.50;;
32407;SDS011;18869;55.970;37.502;2022-07-17T11:40:56;4.47;;;2.90;;
32407;SDS011;18869;55.970;37.502;2022-07-17T11:43:23;5.30;;;2.53;;
32407;SDS011;18869;55.970;37.502;2022-07-17T11:45:51;4.43;;;2.63;;
32407;SDS011;18869;55.970;37.502;2022-07-17T11:48:19;6.70;;;3.97;;
32407;SDS011;18869;55.970;37.502;2022-07-17T11:50:53;4.77;;;3.20;;
32407;SDS011;18869;55.970;37.502;2022-07-17T11:53:34;5.07;;;2.83;;
32407;SDS011;18869;55.970;37.502;2022-07-17T11:56:03;4.93;;;2.93;;
32407;SDS011;18869;55.970;37.502;2022-07-17T11:58:42;5.17;;;2.17;;
32407;SDS011;18869;55.970;37.502;2022-07-17T12:01:11;4.27;;;2.30;;
32407;SDS011;18869;55.970;37.502;2022-07-17T12:03:39;4.97;;;1.83;;
32407;SDS011;18869;55.970;37.502;2022-07-17T12:06:06;1.70;;;1.20;;
32407;SDS011;18869;55.970;37.502;2022-07-17T12:08:36;3.30;;;1.63;;
32407;SDS011;18869;55.970;37.502;2022-07-17T12:11:05;5.07;;;2.60;;
32407;SDS011;18869;55.970;37.502;2022-07-17T12:13:37;5.00;;;2.77;;
32407;SDS011;18869;55.970;37.502;2022-07-17T12:16:20;2.13;;;1.80;;
32407;SDS011;18869;55.970;37.502;2022-07-17T12:18:57;3.70;;;1.20;;
32407;SDS011;18869;55.970;37.502;2022-07-17T12:21:26;2.90;;;1.60;;
32407;SDS011;18869;55.970;37.502;2022-07-17T12:23:58;2.90;;;1.57;;
32407;SDS011;18869;55.970;37.502;2022-07-17T12:26:30;2.80;;;1.60;;
32407;SDS011;18869;55.970;37.502;2022-07-17T12:28:58;2.73;;;2.43;;
32407;SDS011;18869;55.970;37.502;2022-07-17T12:31:26;13.20;;;11.47;;
32407;SDS011;18869;55.970;37.502;2022-07-17T12:33:54;3.30;;;2.07;;
32407;SDS011;18869;55.970;37.502;2022-07-17T12:36:22;2.67;;;1.90;;
32407;SDS011;18869;55.970;37.502;2022-07-17T12:38:50;2.93;;;1.63;;
32407;SDS011;18869;55.970;37.502;2022-07-17T12:41:20;1.87;;;1.50;;
32407;SDS011;18869;55.970;37.502;2022-07-17T12:43:48;2.63;;;2.40;;
32407;SDS011;18869;55.970;37.502;2022-07-17T12:46:16;3.47;;;1.70;;
32407;SDS011;18869;55.970;37.502;2022-07-17T12:48:45;2.00;;;1.60;;
32407;SDS011;18869;55.970;37.502;2022-07-17T12:51:12;2.53;;;1.57;;
32407;SDS011;18869;55.970;37.502;2022-07-17T12:53:41;1.50;;;1.20;;
32407;SDS011;18869;55.970;37.502;2022-07-17T12:56:10;1.17;;;1.07;;
32407;SDS011;18869;55.970;37.502;2022-07-17T12:58:40;1.10;;;0.90;;
32407;SDS011;18869;55.970;37.502;2022-07-17T13:01:16;2.33;;;2.13;;
32407;SDS011;18869;55.970;37.502;2022-07-17T13:03:44;3.17;;;2.97;;
32407;SDS011;18869;55.970;37.502;2022-07-17T13:06:12;2.60;;;2.40;;
32407;SDS011;18869;55.970;37.502;2022-07-17T13:08:40;3.70;;;1.67;;
32407;SDS011;18869;55.970;37.502;2022-07-17T13:11:08;4.20;;;1.40;;
32407;SDS011;18869;55.970;37.502;2022-07-17T13:13:35;3.53;;;2.37;;
32407;SDS011;18869;55.970;37.502;2022-07-17T13:16:05;1.80;;;1.70;;
32407;SDS011;18869;55.970;37.502;2022-07-17T13:18:33;3.20;;;1.77;;
32407;SDS011;18869;55.970;37.502;2022-07-17T13:21:07;4.57;;;2.10;;
32407;SDS011;18869;55.970;37.502;2022-07-17T13:23:44;3.23;;;1.50;;
32407;SDS011;18869;55.970;37.502;2022-07-17T13:26:14;2.80;;;1.80;;
32407;SDS011;18869;55.970;37.502;2022-07-17T13:28:41;3.23;;;2.37;;
32407;SDS011;18869;55.970;37.502;2022-07-17T13:31:10;3.57;;;1.87;;
32407;SDS011;18869;55.970;37.502;2022-07-17T13:33:38;4.33;;;2.90;;
32407;SDS011;18869;55.970;37.502;2022-07-17T13:36:06;4.30;;;2.73;;
32407;SDS011;18869;55.970;37.502;2022-07-17T13:38:34;3.70;;;2.67;;
32407;SDS011;18869;55.970;37.502;2022-07-17T13:41:02;3.60;;;2.43;;
32407;SDS011;18869;55.970;37.502;2022-07-17T13:43:30;7.73;;;6.27;;
32407;SDS011;18869;55.970;37.502;2022-07-17T13:45:57;7.00;;;4.63;;
32407;SDS011;18869;55.970;37.502;2022-07-17T13:48:26;4.37;;;3.00;;
32407;SDS011;18869;55.970;37.502;2022-07-17T13:50:54;4.67;;;1.97;;
32407;SDS011;18869;55.970;37.502;2022-07-17T13:53:21;3.73;;;2.47;;
32407;SDS011;18869;55.970;37.502;2022-07-17T13:55:52;2.43;;;1.90;;
32407;SDS011;18869;55.970;37.502;2022-07-17T13:58:19;2.30;;;2.03;;
32407;SDS011;18869;55.970;37.502;2022-07-17T14:00:47;3.10;;;2.30;;
32407;SDS011;18869;55.970;37.502;2022-07-17T14:03:15;5.93;;;1.83;;
32407;SDS011;18869;55.970;37.502;2022-07-17T14:05:45;3.37;;;1.60;;
32407;SDS011;18869;55.970;37.502;2022-07-17T14:08:12;2.53;;;1.40;;
32407;SDS011;18869;55.970;37.502;2022-07-17T14:10:41;1.90;;;1.53;;
32407;SDS011;18869;55.970;37.502;2022-07-17T14:13:10;4.13;;;2.20;;
32407;SDS011;18869;55.970;37.502;2022-07-17T14:15:37;3.53;;;1.73;;
32407;SDS011;18869;55.970;37.502;2022-07-17T14:18:06;4.30;;;3.30;;
32407;SDS011;18869;55.970;37.502;2022-07-17T14:20:33;4.80;;;3.20;;
32407;SDS011;18869;55.970;37.502;2022-07-17T14:23:02;4.73;;;2.37;;
32407;SDS011;18869;55.970;37.502;2022-07-17T14:25:33;4.50;;;3.23;;
32407;SDS011;18869;55.970;37.502;2022-07-17T14:28:01;2.63;;;2.37;;
32407;SDS011;18869;55.970;37.502;2022-07-17T14:30:28;3.33;;;2.20;;
32407;SDS011;18869;55.970;37.502;2022-07-17T14:32:57;4.27;;;1.93;;
32407;SDS011;18869;55.970;37.502;2022-07-17T14:35:25;3.53;;;2.40;;
32407;SDS011;18869;55.970;37.502;2022-07-17T14:37:53;3.40;;;2.60;;
32407;SDS011;18869;55.970;37.502;2022-07-17T14:40:26;4.33;;;2.50;;
32407;SDS011;18869;55.970;37.502;2022-07-17T14:42:59;3.30;;;2.27;;
32407;SDS011;18869;55.970;37.502;2022-07-17T14:45:27;2.03;;;1.83;;
32407;SDS011;18869;55.970;37.502;2022-07-17T14:47:54;1.90;;;1.57;;